Time,TemperatureF,DewpointF,PressureIn,WindDirection,WindDirectionDegrees,WindSpeedMPH,WindSpeedGustMPH,Humidity,HourlyPrecipIn,Conditions,Clouds,dailyrainin,SolarRadiationWatts/m^2,SoftwareType,DateUTC
2013-09-23 00:02:00,71.1,55.5,29.87,East,90,2.3,2.6,58,0.00,CLR,,0.00,0.0,WeatherDisplay:10.37,2013-09-23 05:02:00,
2013-09-23 00:07:00,71.1,55.5,29.87,ESE,112,2.3,2.6,58,0.00,CLR,,0.00,0.0,WeatherDisplay:10.37,2013-09-23 05:07:00,
2013-09-23 00:12:00,71.1,55.5,29.86,ESE,112,2.3,2.6,58,0.00,CLR,,0.00,0.0,WeatherDisplay:10.37,2013-09-23 05:12:00,
2013-09-23 00:17:00,70.9,55.8,29.86,ESE,112,3.5,3.5,59,0.00,CLR,,0.00,0.0,WeatherDisplay:10.37,2013-09-23 05:17:00,
2013-09-23 00:22:00,70.9,55.8,29.86,SE,135,3.5,3.5,59,0.00,CLR,,0.00,0.0,WeatherDisplay:10.37,2013-09-23 05:22:00,
2013-09-23 00:27:00,70.7,55.7,29.86,ESE,112,3.5,3.5,59,0.00,CLR,,0.00,0.0,WeatherDisplay:10.37,2013-09-23 05:27:00,
2013-09-23 00:32:00,70.7,55.7,29.86,ESE,112,2.3,2.6,59,0.00,CLR,,0.00,0.0,WeatherDisplay:10.37,2013-09-23 05:32:00,
2013-09-23 00:37:00,70.7,55.7,29.86,ESE,112,2.3,2.3,59,0.00,CLR,,0.00,0.0,WeatherDisplay:10.37,2013-09-23 05:37:00,
2013-09-23 00:42:00,70.3,55.8,29.86,ESE,112,1.6,1.8,60,0.00,CLR,,0.00,0.0,WeatherDisplay:10.37,2013-09-23 05:42:00,
2013-09-23 00:47:00,70.2,55.6,29.86,East,90,2.3,2.3,60,0.00,CLR,,0.00,0.0,WeatherDisplay:10.37,2013-09-23 05:47:00,
2013-09-23 00:52:00,70.0,55.9,29.86,ESE,112,1.3,1.4,61,0.00,CLR,,0.00,0.0,WeatherDisplay:10.37,2013-09-23 05:52:00,
2013-09-23 00:57:00,69.6,55.6,29.86,ESE,112,1.6,1.6,61,0.00,CLR,,0.00,0.0,WeatherDisplay:10.37,2013-09-23 05:57:00,
2013-09-23 01:02:00,69.3,55.7,29.86,East,90,2.3,2.3,62,0.00,CLR,,0.00,0.0,WeatherDisplay:10.37,2013-09-23 06:02:00,
2013-09-23 01:07:00,69.3,56.1,29.86,ESE,112,1.2,1.2,63,0.00,CLR,,0.00,0.0,WeatherDisplay:10.37,2013-09-23 06:07:00,
2013-09-23 01:12:00,68.9,56.2,29.86,ESE,112,1.2,1.2,64,0.00,CLR,,0.00,0.0,WeatherDisplay:10.37,2013-09-23 06:12:00,
2013-09-23 01:17:00,68.9,56.2,29.86,ENE,68,1.2,1.2,64,0.00,CLR,,0.00,0.0,WeatherDisplay:10.37,2013-09-23 06:17:00,
2013-09-23 01:22:00,68.5,55.9,29.86,East,90,0.0,0.5,64,0.00,CLR,,0.00,0.0,WeatherDisplay:10.37,2013-09-23 06:22:00,
2013-09-23 01:27:00,68.4,56.1,29.86,East,90,1.2,1.2,65,0.00,CLR,,0.00,0.0,WeatherDisplay:10.37,2013-09-23 06:27:00,
2013-09-23 01:32:00,68.0,55.8,29.87,ESE,112,1.2,1.2,65,0.00,CLR,,0.00,0.0,WeatherDisplay:10.37,2013-09-23 06:32:00,
2013-09-23 01:37:00,68.0,55.8,29.87,ESE,112,2.3,2.3,65,0.00,CLR,,0.00,0.0,WeatherDisplay:10.37,2013-09-23 06:37:00,
2013-09-23 01:42:00,67.6,55.9,29.87,East,90,1.5,1.5,66,0.00,CLR,,0.00,0.0,WeatherDisplay:10.37,2013-09-23 06:42:00,
2013-09-23 01:47:00,67.6,55.9,29.87,ESE,112,2.3,2.3,66,0.00,CLR,,0.00,0.0,WeatherDisplay:10.37,2013-09-23 06:47:00,
2013-09-23 01:52:00,67.3,55.9,29.87,ESE,112,0.0,1.2,67,0.00,CLR,,0.00,0.0,WeatherDisplay:10.37,2013-09-23 06:52:00,
2013-09-23 01:57:00,67.3,55.9,29.87,ESE,112,1.3,1.3,67,0.00,CLR,,0.00,0.0,WeatherDisplay:10.37,2013-09-23 06:57:00,
2013-09-23 02:02:00,67.1,55.8,29.87,ESE,112,0.0,0.5,67,0.00,CLR,,0.00,0.0,WeatherDisplay:10.37,2013-09-23 07:02:00,
2013-09-23 02:07:00,66.7,55.8,29.87,SE,135,0.0,0.2,68,0.00,CLR,,0.00,0.0,WeatherDisplay:10.37,2013-09-23 07:07:00,
2013-09-23 02:12:00,66.6,55.7,29.86,SE,135,0.0,0.3,68,0.00,CLR,,0.00,0.0,WeatherDisplay:10.37,2013-09-23 07:12:00,
2013-09-23 02:17:00,66.6,55.7,29.86,East,90,0.0,0.5,68,0.00,CLR,,0.00,0.0,WeatherDisplay:10.37,2013-09-23 07:17:00,
2013-09-23 02:22:00,66.4,55.9,29.86,East,90,0.0,0.5,69,0.00,CLR,,0.00,0.0,WeatherDisplay:10.37,2013-09-23 07:22:00,
2013-09-23 02:27:00,66.2,55.7,29.86,ESE,112,0.0,0.2,69,0.00,CLR,,0.00,0.0,WeatherDisplay:10.37,2013-09-23 07:27:00,
2013-09-23 02:32:00,66.0,55.6,29.86,ENE,68,0.0,0.3,69,0.00,CLR,,0.00,0.0,WeatherDisplay:10.37,2013-09-23 07:32:00,
2013-09-23 02:37:00,66.0,55.6,29.86,ESE,112,1.2,1.2,69,0.00,CLR,,0.00,0.0,WeatherDisplay:10.37,2013-09-23 07:37:00,
2013-09-23 02:42:00,65.7,56.0,29.86,ESE,112,0.0,0.3,71,0.00,CLR,,0.00,0.0,WeatherDisplay:10.37,2013-09-23 07:42:00,
2013-09-23 02:48:00,65.7,56.0,29.86,ESE,112,1.2,1.2,71,0.00,CLR,,0.00,0.0,WeatherDisplay:10.37,2013-09-23 07:48:00,
2013-09-23 02:53:00,65.7,56.0,29.87,SE,135,0.0,0.3,71,0.00,CLR,,0.00,0.0,WeatherDisplay:10.37,2013-09-23 07:53:00,
2013-09-23 02:58:00,65.5,55.8,29.87,ESE,112,0.0,0.0,71,0.00,CLR,,0.00,0.0,WeatherDisplay:10.37,2013-09-23 07:58:00,
2013-09-23 03:03:00,65.3,55.7,29.87,ESE,112,0.0,0.1,71,0.00,CLR,,0.00,0.0,WeatherDisplay:10.37,2013-09-23 08:03:00,
2013-09-23 03:08:00,65.3,55.7,29.87,ESE,112,0.0,0.1,71,0.00,CLR,,0.00,0.0,WeatherDisplay:10.37,2013-09-23 08:08:00,
2013-09-23 03:13:00,65.1,55.9,29.87,ESE,112,1.3,1.3,72,0.00,CLR,,0.00,0.0,WeatherDisplay:10.37,2013-09-23 08:13:00,
2013-09-23 03:18:00,65.1,55.9,29.87,ESE,112,1.2,1.2,72,0.00,CLR,,0.00,0.0,WeatherDisplay:10.37,2013-09-23 08:18:00,
2013-09-23 03:23:00,64.9,55.7,29.87,ESE,112,1.2,1.2,72,0.00,CLR,,0.00,0.0,WeatherDisplay:10.37,2013-09-23 08:23:00,
2013-09-23 03:28:00,64.9,56.1,29.87,ESE,112,2.3,2.3,73,0.00,CLR,,0.00,0.0,WeatherDisplay:10.37,2013-09-23 08:28:00,
2013-09-23 03:33:00,64.8,55.9,29.86,SE,135,2.3,2.3,73,0.00,CLR,,0.00,0.0,WeatherDisplay:10.37,2013-09-23 08:33:00,
2013-09-23 03:38:00,64.8,55.9,29.86,SE,135,2.3,2.3,73,0.00,CLR,,0.00,0.0,WeatherDisplay:10.37,2013-09-23 08:38:00,
2013-09-23 03:43:00,64.6,55.7,29.86,ESE,112,0.0,1.3,73,0.00,CLR,,0.00,0.0,WeatherDisplay:10.37,2013-09-23 08:43:00,
2013-09-23 03:48:00,64.4,55.6,29.86,SE,135,0.0,0.5,73,0.00,CLR,,0.00,0.0,WeatherDisplay:10.37,2013-09-23 08:48:00,
2013-09-23 03:53:00,64.6,55.7,29.87,South,180,0.0,0.0,73,0.00,CLR,,0.00,0.0,WeatherDisplay:10.37,2013-09-23 08:53:00,
2013-09-23 03:58:00,64.2,55.4,29.87,SSE,158,0.0,0.0,73,0.00,CLR,,0.00,0.0,WeatherDisplay:10.37,2013-09-23 08:58:00,
2013-09-23 04:03:00,64.2,55.4,29.87,SSE,158,0.0,0.0,73,0.00,CLR,,0.00,0.0,WeatherDisplay:10.37,2013-09-23 09:03:00,
2013-09-23 04:08:00,64.0,55.2,29.86,SE,135,0.0,0.0,73,0.00,CLR,,0.00,0.0,WeatherDisplay:10.37,2013-09-23 09:08:00,
2013-09-23 04:13:00,64.2,55.4,29.86,ESE,112,0.0,0.0,73,0.00,CLR,,0.00,0.0,WeatherDisplay:10.37,2013-09-23 09:13:00,
2013-09-23 04:18:00,63.9,55.0,29.86,ESE,112,1.2,1.2,73,0.00,CLR,,0.00,0.0,WeatherDisplay:10.37,2013-09-23 09:18:00,
2013-09-23 04:23:00,63.9,55.4,29.86,ESE,112,0.0,0.1,74,0.00,CLR,,0.00,0.0,WeatherDisplay:10.37,2013-09-23 09:23:00,
2013-09-23 04:28:00,63.9,55.4,29.85,ESE,112,1.2,1.2,74,0.00,CLR,,0.00,0.0,WeatherDisplay:10.37,2013-09-23 09:28:00,
2013-09-23 04:33:00,63.9,55.4,29.85,ESE,112,1.2,1.2,74,0.00,CLR,,0.00,0.0,WeatherDisplay:10.37,2013-09-23 09:33:00,
2013-09-23 04:38:00,63.7,55.2,29.85,ESE,112,0.0,0.5,74,0.00,CLR,,0.00,0.0,WeatherDisplay:10.37,2013-09-23 09:38:00,
2013-09-23 04:43:00,63.7,55.6,29.85,ESE,112,1.2,1.2,75,0.00,CLR,,0.00,0.0,WeatherDisplay:10.37,2013-09-23 09:43:00,
2013-09-23 04:48:00,63.9,55.8,29.85,ESE,112,2.3,2.3,75,0.00,CLR,,0.00,0.0,WeatherDisplay:10.37,2013-09-23 09:48:00,
2013-09-23 04:53:00,63.9,55.4,29.85,ESE,112,2.3,2.3,74,0.00,CLR,,0.00,0.0,WeatherDisplay:10.37,2013-09-23 09:53:00,
2013-09-23 04:58:00,64.2,55.4,29.85,SE,135,2.3,2.4,73,0.00,CLR,,0.00,0.0,WeatherDisplay:10.37,2013-09-23 09:58:00,
2013-09-23 05:03:00,64.2,55.4,29.85,SE,135,3.5,3.5,73,0.00,CLR,,0.00,0.0,WeatherDisplay:10.37,2013-09-23 10:03:00,
2013-09-23 05:08:00,64.6,55.3,29.86,SE,135,3.5,3.5,72,0.00,CLR,,0.00,0.0,WeatherDisplay:10.37,2013-09-23 10:08:00,
2013-09-23 05:13:00,64.4,54.8,29.86,ESE,112,3.5,3.5,71,0.00,CLR,,0.00,0.0,WeatherDisplay:10.37,2013-09-23 10:13:00,
2013-09-23 05:18:00,64.6,55.0,29.86,SE,135,3.5,3.5,71,0.00,CLR,,0.00,0.0,WeatherDisplay:10.37,2013-09-23 10:18:00,
2013-09-23 05:23:00,64.8,55.1,29.86,ESE,112,3.5,3.5,71,0.00,CLR,,0.00,0.0,WeatherDisplay:10.37,2013-09-23 10:23:00,
2013-09-23 05:28:00,64.8,55.1,29.86,ESE,112,3.5,3.5,71,0.00,CLR,,0.00,0.0,WeatherDisplay:10.37,2013-09-23 10:28:00,
2013-09-23 05:33:00,64.8,55.1,29.86,SE,135,4.6,4.6,71,0.00,CLR,,0.00,0.0,WeatherDisplay:10.37,2013-09-23 10:33:00,
2013-09-23 05:38:00,64.9,54.9,29.86,SE,135,4.6,4.6,70,0.00,CLR,,0.00,0.0,WeatherDisplay:10.37,2013-09-23 10:38:00,
2013-09-23 05:43:00,64.9,54.9,29.86,ESE,112,3.5,3.5,70,0.00,CLR,,0.00,0.0,WeatherDisplay:10.37,2013-09-23 10:43:00,
2013-09-23 05:48:00,64.9,54.9,29.85,ESE,112,3.5,3.5,70,0.00,CLR,,0.00,0.0,WeatherDisplay:10.37,2013-09-23 10:48:00,
2013-09-23 05:53:00,64.9,54.9,29.85,SSE,158,4.6,4.6,70,0.00,CLR,,0.00,0.0,WeatherDisplay:10.37,2013-09-23 10:53:00,
2013-09-23 05:58:00,64.9,54.9,29.85,ESE,112,2.3,3.7,70,0.00,CLR,,0.00,0.0,WeatherDisplay:10.37,2013-09-23 10:58:00,
2013-09-23 06:03:00,64.9,54.9,29.85,ESE,112,4.6,4.6,70,0.00,CLR,,0.00,0.0,WeatherDisplay:10.37,2013-09-23 11:03:00,
2013-09-23 06:08:00,64.9,54.9,29.85,ESE,112,3.5,3.8,70,0.00,CLR,,0.00,0.0,WeatherDisplay:10.37,2013-09-23 11:08:00,
2013-09-23 06:13:00,64.9,54.9,29.85,SE,135,5.8,5.8,70,0.00,CLR,,0.00,0.0,WeatherDisplay:10.37,2013-09-23 11:13:00,
2013-09-23 06:18:00,64.9,54.9,29.85,ESE,112,5.8,5.8,70,0.00,CLR,,0.00,0.0,WeatherDisplay:10.37,2013-09-23 11:18:00,
2013-09-23 06:23:00,64.9,54.9,29.85,ESE,112,4.9,4.9,70,0.00,CLR,,0.00,0.0,WeatherDisplay:10.37,2013-09-23 11:23:00,
2013-09-23 06:28:00,64.9,54.9,29.86,ESE,112,3.5,3.5,70,0.00,CLR,,0.00,0.0,WeatherDisplay:10.37,2013-09-23 11:28:00,
2013-09-23 06:33:00,64.9,54.9,29.86,SE,135,2.4,2.8,70,0.00,CLR,,0.00,0.0,WeatherDisplay:10.37,2013-09-23 11:33:00,
2013-09-23 06:38:00,65.1,55.1,29.86,East,90,3.5,3.5,70,0.00,CLR,,0.00,0.0,WeatherDisplay:10.37,2013-09-23 11:38:00,
2013-09-23 06:43:00,65.1,55.1,29.86,SE,135,2.3,2.3,70,0.00,CLR,,0.00,0.0,WeatherDisplay:10.37,2013-09-23 11:43:00,
2013-09-23 06:48:00,64.9,54.9,29.86,SSE,158,2.3,2.3,70,0.00,CLR,,0.00,0.0,WeatherDisplay:10.37,2013-09-23 11:48:00,
2013-09-23 06:53:00,64.9,54.9,29.86,WSW,248,4.6,4.6,70,0.00,CLR,,0.00,0.0,WeatherDisplay:10.37,2013-09-23 11:53:00,
2013-09-23 06:58:00,64.9,54.9,29.86,ESE,112,3.5,3.5,70,0.00,CLR,,0.00,0.0,WeatherDisplay:10.37,2013-09-23 11:58:00,
2013-09-23 07:03:00,64.9,54.9,29.86,SE,135,3.5,3.5,70,0.00,OVC,,0.00,0.0,WeatherDisplay:10.37,2013-09-23 12:03:00,
2013-09-23 07:08:00,65.1,55.1,29.86,ESE,112,4.6,4.6,70,0.00,OVC,,0.00,0.0,WeatherDisplay:10.37,2013-09-23 12:08:00,
2013-09-23 07:13:00,65.1,55.1,29.86,ESE,112,3.5,3.5,70,0.00,OVC,,0.00,0.0,WeatherDisplay:10.37,2013-09-23 12:13:00,
2013-09-23 07:18:00,65.1,55.1,29.86,ESE,112,3.5,3.5,70,0.00,OVC,,0.00,0.0,WeatherDisplay:10.37,2013-09-23 12:18:00,
2013-09-23 07:23:00,65.1,55.1,29.86,ESE,112,3.5,3.5,70,0.00,OVC,,0.00,0.0,WeatherDisplay:10.37,2013-09-23 12:23:00,
2013-09-23 07:28:00,65.3,55.3,29.86,ESE,112,3.5,3.5,70,0.00,OVC,,0.00,0.0,WeatherDisplay:10.37,2013-09-23 12:28:00,
2013-09-23 07:33:00,65.3,55.3,29.86,SE,135,3.5,3.5,70,0.00,OVC,,0.00,0.0,WeatherDisplay:10.37,2013-09-23 12:33:00,
2013-09-23 07:38:00,65.1,55.1,29.86,ESE,112,2.5,2.6,70,0.00,OVC,,0.00,0.0,WeatherDisplay:10.37,2013-09-23 12:38:00,
2013-09-23 07:43:00,65.1,55.1,29.86,ESE,112,3.0,3.0,70,0.00,OVC,,0.00,0.0,WeatherDisplay:10.37,2013-09-23 12:43:00,
2013-09-23 07:48:00,65.1,55.5,29.88,ESE,112,3.5,3.5,71,0.00,OVC,,0.00,0.0,WeatherDisplay:10.37,2013-09-23 12:48:00,
2013-09-23 07:53:00,65.1,55.1,29.88,SSE,158,2.0,2.0,70,0.00,OVC,,0.00,0.0,WeatherDisplay:10.37,2013-09-23 12:53:00,
2013-09-23 07:58:00,65.1,55.1,29.88,SE,135,2.3,2.3,70,0.00,OVC,,0.00,0.0,WeatherDisplay:10.37,2013-09-23 12:58:00,
2013-09-23 08:03:00,65.3,55.3,29.88,SW,225,2.3,2.3,70,0.00,OVC,,0.00,0.0,WeatherDisplay:10.37,2013-09-23 13:03:00,
2013-09-23 08:08:00,65.5,55.4,29.88,ESE,112,2.3,2.3,70,0.00,OVC,,0.00,0.0,WeatherDisplay:10.37,2013-09-23 13:08:00,
2013-09-23 08:13:00,65.7,55.6,29.88,SE,135,2.3,2.3,70,0.00,OVC,,0.00,0.0,WeatherDisplay:10.37,2013-09-23 13:13:00,
2013-09-23 08:19:00,65.7,55.6,29.88,SE,135,4.6,4.6,70,0.00,OVC,,0.00,0.0,WeatherDisplay:10.37,2013-09-23 13:19:00,
2013-09-23 08:24:00,65.8,55.8,29.88,South,180,2.3,2.3,70,0.00,OVC,,0.00,0.0,WeatherDisplay:10.37,2013-09-23 13:24:00,
2013-09-23 08:29:00,65.8,55.8,29.89,ESE,112,2.3,2.3,70,0.00,OVC,,0.00,0.0,WeatherDisplay:10.37,2013-09-23 13:29:00,
2013-09-23 08:34:00,66.2,55.7,29.89,ESE,112,4.6,4.6,69,0.00,OVC,,0.00,0.0,WeatherDisplay:10.37,2013-09-23 13:34:00,
2013-09-23 08:39:00,66.4,55.9,29.89,SSE,158,2.3,3.2,69,0.00,OVC,,0.00,0.0,WeatherDisplay:10.37,2013-09-23 13:39:00,
2013-09-23 08:44:00,66.4,55.9,29.89,SSE,158,3.5,3.5,69,0.00,OVC,,0.00,0.0,WeatherDisplay:10.37,2013-09-23 13:44:00,
2013-09-23 08:49:00,66.7,56.2,29.89,NNE,22,4.6,4.6,69,0.00,OVC,,0.00,0.0,WeatherDisplay:10.37,2013-09-23 13:49:00,
2013-09-23 08:54:00,66.9,56.4,29.89,ESE,112,5.8,5.8,69,0.00,OVC,,0.00,0.0,WeatherDisplay:10.37,2013-09-23 13:54:00,
2013-09-23 08:59:00,67.1,56.6,29.89,ENE,68,2.5,3.5,69,0.00,OVC,,0.00,0.0,WeatherDisplay:10.37,2013-09-23 13:59:00,
2013-09-23 09:04:00,67.3,56.4,29.89,ESE,112,5.8,5.8,68,0.00,OVC,,0.00,0.0,WeatherDisplay:10.37,2013-09-23 14:04:00,
2013-09-23 09:09:00,67.8,56.9,29.89,ESE,112,4.6,4.6,68,0.00,OVC,,0.00,0.0,WeatherDisplay:10.37,2013-09-23 14:09:00,
2013-09-23 09:14:00,68.0,56.6,29.89,SSW,202,4.6,4.6,67,0.00,OVC,,0.00,0.0,WeatherDisplay:10.37,2013-09-23 14:14:00,
2013-09-23 09:19:00,68.2,56.8,29.89,ENE,68,1.2,3.5,67,0.00,OVC,,0.00,0.0,WeatherDisplay:10.37,2013-09-23 14:19:00,
2013-09-23 09:24:00,68.4,57.0,29.89,SE,135,4.6,4.6,67,0.00,OVC,,0.00,0.0,WeatherDisplay:10.37,2013-09-23 14:24:00,
2013-09-23 09:29:00,68.7,56.9,29.89,SE,135,2.3,2.8,66,0.00,OVC,,0.00,0.0,WeatherDisplay:10.37,2013-09-23 14:29:00,
2013-09-23 09:34:00,69.3,57.4,29.89,South,180,6.9,6.9,66,0.00,OVC,,0.00,0.0,WeatherDisplay:10.37,2013-09-23 14:34:00,
2013-09-23 09:39:00,69.3,57.4,29.89,ENE,68,1.5,3.5,66,0.00,OVC,,0.00,0.0,WeatherDisplay:10.37,2013-09-23 14:39:00,
2013-09-23 09:44:00,69.6,57.3,29.89,East,90,8.3,8.3,65,0.00,OVC,,0.00,0.0,WeatherDisplay:10.37,2013-09-23 14:44:00,
2013-09-23 09:49:00,70.0,57.2,29.90,ENE,68,6.9,6.9,64,0.00,OVC,,0.00,0.0,WeatherDisplay:10.37,2013-09-23 14:49:00,
2013-09-23 09:54:00,70.2,57.4,29.90,NNE,22,4.6,4.9,64,0.00,OVC,,0.00,0.0,WeatherDisplay:10.37,2013-09-23 14:54:00,
2013-09-23 09:59:00,70.7,57.0,29.90,SSE,158,9.2,9.2,62,0.00,OVC,,0.00,0.0,WeatherDisplay:10.37,2013-09-23 14:59:00,
2013-09-23 10:04:00,70.7,57.0,29.90,ESE,112,10.4,10.4,62,0.00,OVC,,0.00,0.0,WeatherDisplay:10.37,2013-09-23 15:04:00,
2013-09-23 10:09:00,71.1,57.4,29.90,SSE,158,8.1,8.1,62,0.00,OVC,,0.00,0.0,WeatherDisplay:10.37,2013-09-23 15:09:00,
2013-09-23 10:14:00,71.4,56.8,29.90,East,90,10.4,10.4,60,0.00,OVC,,0.00,0.0,WeatherDisplay:10.37,2013-09-23 15:14:00,
2013-09-23 10:19:00,71.6,57.0,29.90,SSE,158,5.8,5.9,60,0.00,OVC,,0.00,0.0,WeatherDisplay:10.37,2013-09-23 15:19:00,
2013-09-23 10:24:00,72.0,57.3,29.90,SE,135,5.8,5.8,60,0.00,OVC,,0.00,0.0,WeatherDisplay:10.37,2013-09-23 15:24:00,
2013-09-23 10:29:00,72.1,57.5,29.90,NE,45,5.8,5.8,60,0.00,OVC,,0.00,0.0,WeatherDisplay:10.37,2013-09-23 15:29:00,
2013-09-23 10:34:00,72.5,57.8,29.90,WSW,248,1.2,3.0,60,0.00,OVC,,0.00,0.0,WeatherDisplay:10.37,2013-09-23 15:34:00,
2013-09-23 10:39:00,72.9,57.7,29.90,WSW,248,3.5,3.5,59,0.00,OVC,,0.00,0.0,WeatherDisplay:10.37,2013-09-23 15:39:00,
2013-09-23 10:44:00,73.2,57.6,29.90,SSE,158,5.8,5.8,58,0.00,OVC,,0.00,0.0,WeatherDisplay:10.37,2013-09-23 15:44:00,
2013-09-23 10:49:00,73.0,57.4,29.91,SSE,158,6.9,6.9,58,0.00,OVC,,0.00,0.0,WeatherDisplay:10.37,2013-09-23 15:49:00,
2013-09-23 10:54:00,73.6,57.9,29.91,NNE,22,2.6,3.2,58,0.00,OVC,,0.00,0.0,WeatherDisplay:10.37,2013-09-23 15:54:00,
2013-09-23 10:59:00,73.6,57.4,29.91,SE,135,6.9,6.9,57,0.00,OVC,,0.00,0.0,WeatherDisplay:10.37,2013-09-23 15:59:00,
2013-09-23 11:04:00,73.9,57.7,29.91,SE,135,3.5,3.5,57,0.00,OVC,,0.00,0.0,WeatherDisplay:10.37,2013-09-23 16:04:00,
2013-09-23 11:09:00,74.1,57.9,29.91,South,180,4.6,4.6,57,0.00,OVC,,0.00,0.0,WeatherDisplay:10.37,2013-09-23 16:09:00,
2013-09-23 11:14:00,74.5,57.8,29.91,SE,135,5.8,5.8,56,0.00,OVC,,0.00,0.0,WeatherDisplay:10.37,2013-09-23 16:14:00,
2013-09-23 11:19:00,74.7,57.9,29.91,West,270,3.5,3.5,56,0.00,OVC,,0.00,0.0,WeatherDisplay:10.37,2013-09-23 16:19:00,
2013-09-23 11:24:00,74.8,57.6,29.91,West,270,4.6,4.6,55,0.00,OVC,,0.00,0.0,WeatherDisplay:10.37,2013-09-23 16:24:00,
2013-09-23 11:29:00,75.0,57.2,29.91,East,90,8.1,8.1,54,0.00,OVC,,0.00,0.0,WeatherDisplay:10.37,2013-09-23 16:29:00,
2013-09-23 11:34:00,75.4,58.1,29.91,ENE,68,8.1,8.1,55,0.00,OVC,,0.00,0.0,WeatherDisplay:10.37,2013-09-23 16:34:00,
2013-09-23 11:39:00,75.4,58.1,29.91,SSE,158,5.8,5.8,55,0.00,OVC,,0.00,0.0,WeatherDisplay:10.37,2013-09-23 16:39:00,
2013-09-23 11:44:00,75.6,57.7,29.91,ESE,112,4.6,4.6,54,0.00,OVC,,0.00,0.0,WeatherDisplay:10.37,2013-09-23 16:44:00,
2013-09-23 11:49:00,75.9,58.1,29.91,SE,135,4.6,4.6,54,0.00,OVC,,0.00,0.0,WeatherDisplay:10.37,2013-09-23 16:49:00,
2013-09-23 11:54:00,76.1,57.7,29.91,South,180,6.9,6.9,53,0.00,OVC,,0.00,0.0,WeatherDisplay:10.37,2013-09-23 16:54:00,
2013-09-23 11:59:00,76.5,58.1,29.91,ESE,112,4.6,4.6,53,0.00,OVC,,0.00,0.0,WeatherDisplay:10.37,2013-09-23 16:59:00,
2013-09-23 12:04:00,76.5,57.5,29.91,SE,135,4.6,4.6,52,0.00,OVC,,0.00,0.0,WeatherDisplay:10.37,2013-09-23 17:04:00,
2013-09-23 12:09:00,76.5,57.5,29.88,SE,135,4.6,4.6,52,0.00,OVC,,0.00,0.0,WeatherDisplay:10.37,2013-09-23 17:09:00,
2013-09-23 12:14:00,77.2,58.2,29.88,ESE,112,4.6,4.6,52,0.00,OVC,,0.00,0.0,WeatherDisplay:10.37,2013-09-23 17:14:00,
2013-09-23 12:19:00,77.4,57.8,29.88,SSE,158,8.1,8.1,51,0.00,OVC,,0.00,0.0,WeatherDisplay:10.37,2013-09-23 17:19:00,
2013-09-23 12:24:00,77.4,57.8,29.88,NE,45,2.3,3.0,51,0.00,OVC,,0.00,0.0,WeatherDisplay:10.37,2013-09-23 17:24:00,
2013-09-23 12:29:00,77.5,58.0,29.88,SE,135,4.6,4.6,51,0.00,OVC,,0.00,0.0,WeatherDisplay:10.37,2013-09-23 17:29:00,
2013-09-23 12:34:00,77.9,58.3,29.88,ESE,112,3.5,3.5,51,0.00,OVC,,0.00,0.0,WeatherDisplay:10.37,2013-09-23 17:34:00,
2013-09-23 12:39:00,78.1,57.9,29.88,SE,135,3.5,3.5,50,0.00,OVC,,0.00,0.0,WeatherDisplay:10.37,2013-09-23 17:39:00,
2013-09-23 12:44:00,78.4,58.3,29.88,WSW,248,6.9,6.9,50,0.00,OVC,,0.00,0.0,WeatherDisplay:10.37,2013-09-23 17:44:00,
2013-09-23 12:49:00,78.6,58.4,29.88,SSE,158,5.8,5.8,50,0.00,OVC,,0.00,0.0,WeatherDisplay:10.37,2013-09-23 17:49:00,
2013-09-23 12:54:00,78.6,58.4,29.88,South,180,5.8,5.8,50,0.00,OVC,,0.00,0.0,WeatherDisplay:10.37,2013-09-23 17:54:00,
2013-09-23 12:59:00,78.8,58.0,29.88,SSE,158,5.9,5.9,49,0.00,OVC,,0.00,0.0,WeatherDisplay:10.37,2013-09-23 17:59:00,
2013-09-23 13:04:00,79.0,58.2,29.88,ESE,112,0.0,2.0,49,0.00,OVC,,0.00,0.0,WeatherDisplay:10.37,2013-09-23 18:04:00,
2013-09-23 13:09:00,79.3,57.9,29.87,NW,315,1.2,1.2,48,0.00,OVC,,0.00,0.0,WeatherDisplay:10.37,2013-09-23 18:09:00,
2013-09-23 13:14:00,79.5,58.7,29.87,SE,135,2.3,2.3,49,0.00,OVC,,0.00,0.0,WeatherDisplay:10.37,2013-09-23 18:14:00,
2013-09-23 13:19:00,79.5,58.1,29.87,SE,135,6.6,6.6,48,0.00,OVC,,0.00,0.0,WeatherDisplay:10.37,2013-09-23 18:19:00,
2013-09-23 13:24:00,80.1,58.0,29.87,ESE,112,5.8,5.8,47,0.00,OVC,,0.00,0.0,WeatherDisplay:10.37,2013-09-23 18:24:00,
2013-09-23 13:29:00,80.1,58.6,29.85,South,180,5.6,5.6,48,0.00,OVC,,0.00,0.0,WeatherDisplay:10.37,2013-09-23 18:29:00,
2013-09-23 13:34:00,80.1,58.0,29.85,East,90,2.3,2.4,47,0.00,OVC,,0.00,0.0,WeatherDisplay:10.37,2013-09-23 18:34:00,
2013-09-23 13:39:00,80.2,58.8,29.85,ESE,112,4.6,4.6,48,0.00,OVC,,0.00,0.0,WeatherDisplay:10.37,2013-09-23 18:39:00,
2013-09-23 13:45:00,80.4,58.3,29.85,SSE,158,6.9,6.9,47,0.00,OVC,,0.00,0.0,WeatherDisplay:10.37,2013-09-23 18:45:00,
2013-09-23 13:50:00,80.8,58.7,29.85,SSE,158,2.3,2.3,47,0.00,OVC,,0.00,0.0,WeatherDisplay:10.37,2013-09-23 18:50:00,
2013-09-23 13:55:00,81.0,58.2,29.85,ENE,68,4.6,4.6,46,0.00,OVC,,0.00,0.0,WeatherDisplay:10.37,2013-09-23 18:55:00,
2013-09-23 14:01:00,81.0,57.6,29.85,SE,135,5.8,5.8,45,0.00,OVC,,0.00,0.0,WeatherDisplay:10.37,2013-09-23 19:01:00,
2013-09-23 14:06:00,81.3,57.3,29.85,NE,45,4.6,4.6,44,0.00,OVC,,0.00,0.0,WeatherDisplay:10.37,2013-09-23 19:06:00,
2013-09-23 14:11:00,81.5,56.8,29.84,ENE,68,3.5,3.5,43,0.00,OVC,,0.00,0.0,WeatherDisplay:10.37,2013-09-23 19:11:00,
2013-09-23 14:16:00,81.7,56.4,29.84,ESE,112,8.1,8.1,42,0.00,OVC,,0.00,0.0,WeatherDisplay:10.37,2013-09-23 19:16:00,
2013-09-23 14:21:00,81.9,56.5,29.84,South,180,3.5,3.5,42,0.00,OVC,,0.00,0.0,WeatherDisplay:10.37,2013-09-23 19:21:00,
2013-09-23 14:26:00,81.9,57.8,29.84,South,180,3.3,3.3,44,0.00,OVC,,0.00,0.0,WeatherDisplay:10.37,2013-09-23 19:26:00,
2013-09-23 14:31:00,82.2,56.8,29.83,SE,135,2.3,2.3,42,0.00,OVC,,0.00,0.0,WeatherDisplay:10.37,2013-09-23 19:31:00,
2013-09-23 14:36:00,82.4,56.3,29.83,South,180,4.6,4.6,41,0.00,OVC,,0.00,0.0,WeatherDisplay:10.37,2013-09-23 19:36:00,
2013-09-23 14:41:00,82.8,56.7,29.83,East,90,4.6,4.6,41,0.00,OVC,,0.00,0.0,WeatherDisplay:10.37,2013-09-23 19:41:00,
2013-09-23 14:46:00,82.8,56.7,29.83,SSE,158,2.3,2.3,41,0.00,OVC,,0.00,0.0,WeatherDisplay:10.37,2013-09-23 19:46:00,
2013-09-23 14:51:00,83.1,57.0,29.82,SE,135,0.0,1.6,41,0.00,OVC,,0.00,0.0,WeatherDisplay:10.37,2013-09-23 19:51:00,
2013-09-23 14:56:00,83.3,56.5,29.82,SSE,158,3.5,3.5,40,0.00,OVC,,0.00,0.0,WeatherDisplay:10.37,2013-09-23 19:56:00,
2013-09-23 15:01:00,83.1,56.3,29.82,SSE,158,2.3,2.3,40,0.00,OVC,,0.00,0.0,WeatherDisplay:10.37,2013-09-23 20:01:00,
2013-09-23 15:06:00,83.5,55.9,29.82,ESE,112,0.0,1.5,39,0.00,OVC,,0.00,0.0,WeatherDisplay:10.37,2013-09-23 20:06:00,
2013-09-23 15:11:00,83.7,56.1,29.82,SE,135,6.9,6.9,39,0.00,OVC,,0.00,0.0,WeatherDisplay:10.37,2013-09-23 20:11:00,
2013-09-23 15:16:00,83.7,56.8,29.82,South,180,3.8,3.8,40,0.00,OVC,,0.00,0.0,WeatherDisplay:10.37,2013-09-23 20:16:00,
2013-09-23 15:21:00,84.0,56.4,29.82,WSW,248,0.0,2.2,39,0.00,OVC,,0.00,0.0,WeatherDisplay:10.37,2013-09-23 20:21:00,
2013-09-23 15:26:00,83.8,56.2,29.82,ENE,68,4.6,4.6,39,0.00,OVC,,0.00,0.0,WeatherDisplay:10.37,2013-09-23 20:26:00,
2013-09-23 15:31:00,84.0,56.4,29.81,SE,135,5.8,5.8,39,0.00,OVC,,0.00,0.0,WeatherDisplay:10.37,2013-09-23 20:31:00,
2013-09-23 15:36:00,83.8,56.2,29.81,SE,135,1.2,3.0,39,0.00,OVC,,0.00,0.0,WeatherDisplay:10.37,2013-09-23 20:36:00,
2013-09-23 15:41:00,84.2,56.6,29.81,NNE,22,3.5,3.5,39,0.00,OVC,,0.00,0.0,WeatherDisplay:10.37,2013-09-23 20:41:00,
2013-09-23 15:46:00,84.4,56.0,29.81,SE,135,0.0,1.3,38,0.00,OVC,,0.00,0.0,WeatherDisplay:10.37,2013-09-23 20:46:00,
2013-09-23 15:51:00,84.6,56.2,29.81,SE,135,6.9,6.9,38,0.00,OVC,,0.00,0.0,WeatherDisplay:10.37,2013-09-23 20:51:00,
2013-09-23 15:56:00,84.6,56.2,29.81,SE,135,6.9,6.9,38,0.00,OVC,,0.00,0.0,WeatherDisplay:10.37,2013-09-23 20:56:00,
2013-09-23 16:01:00,84.6,55.4,29.81,SE,135,8.1,8.1,37,0.00,OVC,,0.00,0.0,WeatherDisplay:10.37,2013-09-23 21:01:00,
2013-09-23 16:06:00,84.4,56.0,29.81,SSE,158,4.7,4.7,38,0.00,OVC,,0.00,0.0,WeatherDisplay:10.37,2013-09-23 21:06:00,
2013-09-23 16:11:00,84.6,56.2,29.79,East,90,3.6,3.6,38,0.00,OVC,,0.00,0.0,WeatherDisplay:10.37,2013-09-23 21:11:00,
2013-09-23 16:16:00,84.7,56.3,29.79,East,90,5.1,5.1,38,0.00,OVC,,0.00,0.0,WeatherDisplay:10.37,2013-09-23 21:16:00,
2013-09-23 16:21:00,84.7,56.3,29.79,SSE,158,3.5,3.5,38,0.00,OVC,,0.00,0.0,WeatherDisplay:10.37,2013-09-23 21:21:00,
2013-09-23 16:26:00,85.1,56.6,29.79,SSE,158,7.4,7.4,38,0.00,OVC,,0.00,0.0,WeatherDisplay:10.37,2013-09-23 21:26:00,
2013-09-23 16:31:00,84.9,55.7,29.79,South,180,2.3,2.5,37,0.00,OVC,,0.00,0.0,WeatherDisplay:10.37,2013-09-23 21:31:00,
2013-09-23 16:36:00,84.7,55.6,29.79,WSW,248,4.6,4.6,37,0.00,OVC,,0.00,0.0,WeatherDisplay:10.37,2013-09-23 21:36:00,
2013-09-23 16:41:00,84.7,56.3,29.79,ESE,112,1.2,2.0,38,0.00,OVC,,0.00,0.0,WeatherDisplay:10.37,2013-09-23 21:41:00,
2013-09-23 16:46:00,84.9,55.7,29.79,SE,135,4.6,4.6,37,0.00,OVC,,0.00,0.0,WeatherDisplay:10.37,2013-09-23 21:46:00,
2013-09-23 16:51:00,85.1,55.1,29.79,SE,135,0.0,2.4,36,0.00,OVC,,0.00,0.0,WeatherDisplay:10.37,2013-09-23 21:51:00,
2013-09-23 16:57:00,85.3,55.3,29.79,East,90,2.3,2.3,36,0.00,OVC,,0.00,0.0,WeatherDisplay:10.37,2013-09-23 21:57:00,
2013-09-23 17:02:00,85.1,55.9,29.79,SSE,158,4.6,4.6,37,0.00,OVC,,0.00,0.0,WeatherDisplay:10.37,2013-09-23 22:02:00,
2013-09-23 17:07:00,85.1,55.9,29.79,East,90,6.9,6.9,37,0.00,OVC,,0.00,0.0,WeatherDisplay:10.37,2013-09-23 22:07:00,
2013-09-23 17:12:00,85.1,55.1,29.79,SE,135,5.8,5.8,36,0.00,OVC,,0.00,0.0,WeatherDisplay:10.37,2013-09-23 22:12:00,
2013-09-23 17:17:00,85.3,54.5,29.79,SE,135,5.8,5.8,35,0.00,OVC,,0.00,0.0,WeatherDisplay:10.37,2013-09-23 22:17:00,
2013-09-23 17:22:00,85.3,54.5,29.79,ESE,112,2.6,2.6,35,0.00,OVC,,0.00,0.0,WeatherDisplay:10.37,2013-09-23 22:22:00,
2013-09-23 17:27:00,85.3,53.7,29.79,ESE,112,5.2,5.2,34,0.00,OVC,,0.00,0.0,WeatherDisplay:10.37,2013-09-23 22:27:00,
2013-09-23 17:32:00,85.1,54.4,29.80,SSE,158,2.8,2.8,35,0.00,OVC,,0.00,0.0,WeatherDisplay:10.37,2013-09-23 22:32:00,
2013-09-23 17:37:00,85.1,53.6,29.80,SE,135,3.5,3.5,34,0.00,OVC,,0.00,0.0,WeatherDisplay:10.37,2013-09-23 22:37:00,
2013-09-23 17:42:00,84.9,53.4,29.80,SE,135,2.3,2.3,34,0.00,OVC,,0.00,0.0,WeatherDisplay:10.37,2013-09-23 22:42:00,
2013-09-23 17:47:00,85.1,52.8,29.80,SSE,158,6.9,6.9,33,0.00,OVC,,0.00,0.0,WeatherDisplay:10.37,2013-09-23 22:47:00,
2013-09-23 17:52:00,84.9,53.4,29.80,South,180,2.3,3.1,34,0.00,OVC,,0.00,0.0,WeatherDisplay:10.37,2013-09-23 22:52:00,
2013-09-23 17:57:00,85.1,54.4,29.80,SSE,158,6.9,6.9,35,0.00,OVC,,0.00,0.0,WeatherDisplay:10.37,2013-09-23 22:57:00,
2013-09-23 18:02:00,84.7,54.8,29.80,SE,135,3.5,3.5,36,0.00,OVC,,0.00,0.0,WeatherDisplay:10.37,2013-09-23 23:02:00,
2013-09-23 18:07:00,84.6,53.9,29.80,SSE,158,3.5,3.5,35,0.00,OVC,,0.00,0.0,WeatherDisplay:10.37,2013-09-23 23:07:00,
2013-09-23 18:12:00,84.6,53.9,29.79,SE,135,3.5,3.5,35,0.00,OVC,,0.00,0.0,WeatherDisplay:10.37,2013-09-23 23:12:00,
2013-09-23 18:17:00,84.6,54.7,29.79,SSE,158,4.6,4.6,36,0.00,OVC,,0.00,0.0,WeatherDisplay:10.37,2013-09-23 23:17:00,
2013-09-23 18:22:00,84.4,54.5,29.79,SW,225,4.6,4.6,36,0.00,OVC,,0.00,0.0,WeatherDisplay:10.37,2013-09-23 23:22:00,
2013-09-23 18:27:00,84.2,54.4,29.79,SE,135,4.7,4.7,36,0.00,OVC,,0.00,0.0,WeatherDisplay:10.37,2013-09-23 23:27:00,
2013-09-23 18:32:00,84.2,53.6,29.79,SSE,158,5.8,5.8,35,0.00,OVC,,0.00,0.0,WeatherDisplay:10.37,2013-09-23 23:32:00,
2013-09-23 18:37:00,84.2,54.4,29.79,SSE,158,6.0,6.0,36,0.00,OVC,,0.00,0.0,WeatherDisplay:10.37,2013-09-23 23:37:00,
2013-09-23 18:42:00,84.0,54.2,29.79,SE,135,4.8,4.8,36,0.00,OVC,,0.00,0.0,WeatherDisplay:10.37,2013-09-23 23:42:00,
2013-09-23 18:47:00,84.0,53.4,29.79,South,180,3.5,3.5,35,0.00,OVC,,0.00,0.0,WeatherDisplay:10.37,2013-09-23 23:47:00,
2013-09-23 18:52:00,83.7,53.9,29.79,South,180,3.5,3.5,36,0.00,OVC,,0.00,0.0,WeatherDisplay:10.37,2013-09-23 23:52:00,
2013-09-23 18:57:00,83.7,54.6,29.79,SSE,158,3.5,3.5,37,0.00,OVC,,0.00,0.0,WeatherDisplay:10.37,2013-09-23 23:57:00,
2013-09-23 19:02:00,83.3,54.3,29.79,East,90,3.1,3.1,37,0.00,OVC,,0.00,0.0,WeatherDisplay:10.37,2013-09-24 00:02:00,
2013-09-23 19:07:00,83.1,54.1,29.79,SE,135,4.6,4.6,37,0.00,OVC,,0.00,0.0,WeatherDisplay:10.37,2013-09-24 00:07:00,
2013-09-23 19:12:00,82.9,54.7,29.81,SE,135,2.3,2.3,38,0.00,OVC,,0.00,0.0,WeatherDisplay:10.37,2013-09-24 00:12:00,
2013-09-23 19:17:00,82.8,54.6,29.81,SE,135,2.3,2.3,38,0.00,OVC,,0.00,0.0,WeatherDisplay:10.37,2013-09-24 00:17:00,
2013-09-23 19:22:00,82.6,55.1,29.81,ESE,112,5.8,5.8,39,0.00,OVC,,0.00,0.0,WeatherDisplay:10.37,2013-09-24 00:22:00,
2013-09-23 19:27:00,82.4,55.0,29.81,SE,135,4.6,4.6,39,0.00,OVC,,0.00,0.0,WeatherDisplay:10.37,2013-09-24 00:27:00,
2013-09-23 19:32:00,82.2,55.5,29.80,SSE,158,2.3,2.3,40,0.00,OVC,,0.00,0.0,WeatherDisplay:10.37,2013-09-24 00:32:00,
2013-09-23 19:37:00,82.0,55.3,29.80,SE,135,2.3,2.3,40,0.00,OVC,,0.00,0.0,WeatherDisplay:10.37,2013-09-24 00:37:00,
2013-09-23 19:42:00,81.9,55.2,29.80,South,180,2.3,2.3,40,0.00,OVC,,0.00,0.0,WeatherDisplay:10.37,2013-09-24 00:42:00,
2013-09-23 19:47:00,81.7,55.7,29.80,SE,135,3.5,3.5,41,0.00,OVC,,0.00,0.0,WeatherDisplay:10.37,2013-09-24 00:47:00,
2013-09-23 19:52:00,81.7,55.7,29.81,SE,135,2.3,2.3,41,0.00,OVC,,0.00,0.0,WeatherDisplay:10.37,2013-09-24 00:52:00,
2013-09-23 19:57:00,81.5,55.5,29.81,SE,135,2.9,2.9,41,0.00,CLR,,0.00,0.0,WeatherDisplay:10.37,2013-09-24 00:57:00,
2013-09-23 20:02:00,81.3,56.0,29.81,South,180,2.3,2.3,42,0.00,CLR,,0.00,0.0,WeatherDisplay:10.37,2013-09-24 01:02:00,
2013-09-23 20:07:00,81.1,55.9,29.81,SE,135,2.3,2.3,42,0.00,CLR,,0.00,0.0,WeatherDisplay:10.37,2013-09-24 01:07:00,
2013-09-23 20:12:00,81.1,55.9,29.81,South,180,5.8,5.8,42,0.00,CLR,,0.00,0.0,WeatherDisplay:10.37,2013-09-24 01:12:00,
2013-09-23 20:17:00,80.8,56.2,29.81,SSE,158,3.2,3.2,43,0.00,CLR,,0.00,0.0,WeatherDisplay:10.37,2013-09-24 01:17:00,
2013-09-23 20:22:00,80.6,56.0,29.81,SSE,158,1.3,1.5,43,0.00,CLR,,0.00,0.0,WeatherDisplay:10.37,2013-09-24 01:22:00,
2013-09-23 20:27:00,80.4,55.9,29.81,SSE,158,2.3,2.3,43,0.00,CLR,,0.00,0.0,WeatherDisplay:10.37,2013-09-24 01:27:00,
2013-09-23 20:32:00,80.4,56.5,29.82,SE,135,2.3,2.3,44,0.00,CLR,,0.00,0.0,WeatherDisplay:10.37,2013-09-24 01:32:00,
2013-09-23 20:37:00,80.1,56.8,29.82,SE,135,1.2,1.3,45,0.00,CLR,,0.00,0.0,WeatherDisplay:10.37,2013-09-24 01:37:00,
2013-09-23 20:42:00,80.1,56.8,29.82,SE,135,2.3,2.3,45,0.00,CLR,,0.00,0.0,WeatherDisplay:10.37,2013-09-24 01:42:00,
2013-09-23 20:47:00,79.9,57.3,29.82,SE,135,3.5,3.5,46,0.00,CLR,,0.00,0.0,WeatherDisplay:10.37,2013-09-24 01:47:00,
2013-09-23 20:53:00,79.9,57.8,29.82,SE,135,4.6,4.6,47,0.00,CLR,,0.00,0.0,WeatherDisplay:10.37,2013-09-24 01:53:00,
2013-09-23 20:58:00,79.7,57.7,29.82,SSE,158,3.5,3.5,47,0.00,CLR,,0.00,0.0,WeatherDisplay:10.37,2013-09-24 01:58:00,
2013-09-23 21:03:00,79.5,57.5,29.82,ESE,112,3.5,3.5,47,0.00,CLR,,0.00,0.0,WeatherDisplay:10.37,2013-09-24 02:03:00,
2013-09-23 21:08:00,79.5,58.1,29.83,ESE,112,3.5,3.5,48,0.00,CLR,,0.00,0.0,WeatherDisplay:10.37,2013-09-24 02:08:00,
2013-09-23 21:13:00,79.5,58.1,29.83,SE,135,2.3,2.3,48,0.00,CLR,,0.00,0.0,WeatherDisplay:10.37,2013-09-24 02:13:00,
2013-09-23 21:18:00,79.3,57.9,29.83,SE,135,2.3,2.3,48,0.00,CLR,,0.00,0.0,WeatherDisplay:10.37,2013-09-24 02:18:00,
2013-09-23 21:23:00,79.0,58.2,29.83,ESE,112,2.3,2.3,49,0.00,CLR,,0.00,0.0,WeatherDisplay:10.37,2013-09-24 02:23:00,
2013-09-23 21:28:00,78.6,58.4,29.85,SE,135,2.5,2.5,50,0.00,CLR,,0.00,0.0,WeatherDisplay:10.37,2013-09-24 02:28:00,
2013-09-23 21:33:00,78.6,59.0,29.85,ESE,112,2.3,2.3,51,0.00,CLR,,0.00,0.0,WeatherDisplay:10.37,2013-09-24 02:33:00,
2013-09-23 21:38:00,78.1,59.0,29.85,ESE,112,2.6,2.6,52,0.00,CLR,,0.00,0.0,WeatherDisplay:10.37,2013-09-24 02:38:00,
2013-09-23 21:43:00,77.9,58.9,29.85,SSE,158,1.2,1.3,52,0.00,CLR,,0.00,0.0,WeatherDisplay:10.37,2013-09-24 02:43:00,
2013-09-23 21:48:00,77.9,59.4,29.86,ESE,112,1.2,1.3,53,0.00,CLR,,0.00,0.0,WeatherDisplay:10.37,2013-09-24 02:48:00,
2013-09-23 21:53:00,77.5,59.1,29.86,SSE,158,1.2,1.4,53,0.00,CLR,,0.00,0.0,WeatherDisplay:10.37,2013-09-24 02:53:00,
2013-09-23 21:58:00,77.4,58.9,29.86,ESE,112,2.3,2.3,53,0.00,CLR,,0.00,0.0,WeatherDisplay:10.37,2013-09-24 02:58:00,
2013-09-23 22:03:00,77.2,59.2,29.86,ESE,112,3.5,3.5,54,0.00,CLR,,0.00,0.0,WeatherDisplay:10.37,2013-09-24 03:03:00,
2013-09-23 22:08:00,77.0,59.6,29.86,SE,135,2.3,2.3,55,0.00,CLR,,0.00,0.0,WeatherDisplay:10.37,2013-09-24 03:08:00,
2013-09-23 22:13:00,76.8,59.9,29.86,East,90,1.2,1.2,56,0.00,CLR,,0.00,0.0,WeatherDisplay:10.37,2013-09-24 03:13:00,
2013-09-23 22:18:00,76.5,59.6,29.86,ESE,112,2.3,2.3,56,0.00,CLR,,0.00,0.0,WeatherDisplay:10.37,2013-09-24 03:18:00,
2013-09-23 22:23:00,76.5,59.6,29.86,ESE,112,2.3,2.3,56,0.00,CLR,,0.00,0.0,WeatherDisplay:10.37,2013-09-24 03:23:00,
2013-09-23 22:28:00,76.5,59.1,29.86,ESE,112,2.3,2.3,55,0.00,CLR,,0.00,0.0,WeatherDisplay:10.37,2013-09-24 03:28:00,
2013-09-23 22:33:00,76.6,59.3,29.86,ESE,112,2.3,2.3,55,0.00,CLR,,0.00,0.0,WeatherDisplay:10.37,2013-09-24 03:33:00,
2013-09-23 22:38:00,76.6,59.3,29.86,ESE,112,2.3,2.3,55,0.00,CLR,,0.00,0.0,WeatherDisplay:10.37,2013-09-24 03:38:00,
2013-09-23 22:43:00,76.6,59.8,29.86,ESE,112,2.3,2.3,56,0.00,CLR,,0.00,0.0,WeatherDisplay:10.37,2013-09-24 03:43:00,
2013-09-23 22:48:00,76.5,59.6,29.86,ESE,112,3.5,3.5,56,0.00,CLR,,0.00,0.0,WeatherDisplay:10.37,2013-09-24 03:48:00,
2013-09-23 22:53:00,76.5,59.6,29.86,SE,135,2.3,2.3,56,0.00,CLR,,0.00,0.0,WeatherDisplay:10.37,2013-09-24 03:53:00,
2013-09-23 22:58:00,76.3,59.4,29.86,East,90,2.3,2.3,56,0.00,CLR,,0.00,0.0,WeatherDisplay:10.37,2013-09-24 03:58:00,
2013-09-23 23:01:00,76.5,59.6,29.86,East,90,3.5,3.5,56,0.00,CLR,,0.00,0.0,WeatherDisplay:10.37,2013-09-24 04:01:00,
2013-09-23 23:06:00,76.5,59.6,29.86,North,0,3.5,3.5,56,0.00,CLR,,0.00,0.0,WeatherDisplay:10.37,2013-09-24 04:06:00,
2013-09-23 23:11:00,76.3,59.4,29.87,SSE,158,3.9,3.9,56,0.00,CLR,,0.00,0.0,WeatherDisplay:10.37,2013-09-24 04:11:00,
2013-09-23 23:16:00,76.1,59.8,29.87,ESE,112,4.7,4.7,57,0.00,CLR,,0.00,0.0,WeatherDisplay:10.37,2013-09-24 04:16:00,
2013-09-23 23:21:00,76.1,59.8,29.87,SE,135,3.7,3.7,57,0.00,CLR,,0.00,0.0,WeatherDisplay:10.37,2013-09-24 04:21:00,
2013-09-23 23:26:00,76.1,59.8,29.87,East,90,4.6,4.6,57,0.00,CLR,,0.00,0.0,WeatherDisplay:10.37,2013-09-24 04:26:00,
2013-09-23 23:31:00,76.1,59.8,29.86,South,180,2.6,2.6,57,0.00,CLR,,0.00,0.0,WeatherDisplay:10.37,2013-09-24 04:31:00,
2013-09-23 23:36:00,76.1,59.8,29.86,SSE,158,2.3,2.3,57,0.00,CLR,,0.00,0.0,WeatherDisplay:10.37,2013-09-24 04:36:00,
2013-09-23 23:41:00,76.1,59.8,29.86,SE,135,3.5,3.5,57,0.00,CLR,,0.00,0.0,WeatherDisplay:10.37,2013-09-24 04:41:00,
2013-09-23 23:46:00,75.9,60.1,29.86,ESE,112,2.3,2.3,58,0.00,CLR,,0.00,0.0,WeatherDisplay:10.37,2013-09-24 04:46:00,
2013-09-23 23:51:00,75.7,59.9,29.86,East,90,0.0,1.4,58,0.00,CLR,,0.00,0.0,WeatherDisplay:10.37,2013-09-24 04:51:00,
2013-09-23 23:56:00,75.4,59.6,29.86,East,90,1.5,1.5,58,0.00,CLR,,0.00,0.0,WeatherDisplay:10.37,2013-09-24 04:56:00,